sensor_id;sensor_type;location;lat;lon;timestamp;pressure;altitude;pressure_sealevel;temperature;humidity
13604;BME280;24578;48.264;11.436;2022-07-19T00:00:33;96704.13;;;16.47;72.54
13604;BME280;24578;48.264;11.436;2022-07-19T00:03:34;96708.00;;;16.42;72.72
13604;BME280;24578;48.264;11.436;2022-07-19T00:06:35;96700.69;;;16.36;73.02
13604;BME280;24578;48.264;11.436;2022-07-19T00:09:35;96703.81;;;16.30;73.58
13604;BME280;24578;48.264;11.436;2022-07-19T00:12:36;96698.91;;;16.27;74.53
13604;BME280;24578;48.264;11.436;2022-07-19T00:15:37;96704.66;;;16.21;74.67
13604;BME280;24578;48.264;11.436;2022-07-19T00:18:38;96700.66;;;16.17;74.75
13604;BME280;24578;48.264;11.436;2022-07-19T00:21:38;96701.19;;;16.10;75.27
13604;BME280;24578;48.264;11.436;2022-07-19T00:24:39;96705.72;;;16.08;75.85
13604;BME280;24578;48.264;11.436;2022-07-19T00:27:40;96704.34;;;16.04;76.34
13604;BME280;24578;48.264;11.436;2022-07-19T00:30:41;96705.44;;;16.02;76.42
13604;BME280;24578;48.264;11.436;2022-07-19T00:33:42;96702.38;;;15.96;76.71
13604;BME280;24578;48.264;11.436;2022-07-19T00:36:42;96705.41;;;15.92;76.84
13604;BME280;24578;48.264;11.436;2022-07-19T00:39:43;96694.53;;;15.87;77.19
13604;BME280;24578;48.264;11.436;2022-07-19T00:42:43;96700.69;;;15.86;77.65
13604;BME280;24578;48.264;11.436;2022-07-19T00:45:44;96700.22;;;15.80;78.03
13604;BME280;24578;48.264;11.436;2022-07-19T00:48:45;96703.13;;;15.77;78.24
13604;BME280;24578;48.264;11.436;2022-07-19T00:51:47;96698.44;;;15.71;78.75
13604;BME280;24578;48.264;11.436;2022-07-19T00:54:48;96695.38;;;15.66;78.80
13604;BME280;24578;48.264;11.436;2022-07-19T00:57:55;96696.63;;;15.62;78.86
13604;BME280;24578;48.264;11.436;2022-07-19T01:00:56;96700.44;;;15.58;79.18
13604;BME280;24578;48.264;11.436;2022-07-19T01:03:58;96699.19;;;15.52;79.18
13604;BME280;24578;48.264;11.436;2022-07-19T01:06:58;96694.38;;;15.47;79.14
13604;BME280;24578;48.264;11.436;2022-07-19T01:09:59;96700.78;;;15.43;78.92
13604;BME280;24578;48.264;11.436;2022-07-19T01:13:00;96695.97;;;15.38;78.62
13604;BME280;24578;48.264;11.436;2022-07-19T01:16:01;96698.13;;;15.33;78.41
13604;BME280;24578;48.264;11.436;2022-07-19T01:19:05;96699.34;;;15.29;78.54
13604;BME280;24578;48.264;11.436;2022-07-19T01:22:06;96696.88;;;15.28;78.88
13604;BME280;24578;48.264;11.436;2022-07-19T01:25:06;96705.91;;;15.23;79.52
13604;BME280;24578;48.264;11.436;2022-07-19T01:28:08;96697.38;;;15.21;79.19
13604;BME280;24578;48.264;11.436;2022-07-19T01:31:09;96692.41;;;15.18;79.25
13604;BME280;24578;48.264;11.436;2022-07-19T01:34:09;96685.81;;;15.14;79.21
13604;BME280;24578;48.264;11.436;2022-07-19T01:37:10;96688.69;;;15.11;79.92
13604;BME280;24578;48.264;11.436;2022-07-19T01:40:12;96688.94;;;15.08;80.53
13604;BME280;24578;48.264;11.436;2022-07-19T01:43:13;96684.66;;;15.07;81.10
13604;BME280;24578;48.264;11.436;2022-07-19T01:46:14;96687.41;;;15.05;81.41
13604;BME280;24578;48.264;11.436;2022-07-19T01:49:15;96685.19;;;15.01;81.55
13604;BME280;24578;48.264;11.436;2022-07-19T01:52:16;96687.34;;;14.96;81.90
13604;BME280;24578;48.264;11.436;2022-07-19T01:55:19;96690.19;;;14.92;82.32
13604;BME280;24578;48.264;11.436;2022-07-19T01:58:20;96691.28;;;14.90;82.76
13604;BME280;24578;48.264;11.436;2022-07-19T02:01:21;96693.44;;;14.85;82.64
13604;BME280;24578;48.264;11.436;2022-07-19T02:04:21;96693.81;;;14.80;82.76
13604;BME280;24578;48.264;11.436;2022-07-19T02:07:22;96689.00;;;14.75;82.76
13604;BME280;24578;48.264;11.436;2022-07-19T02:10:22;96684.97;;;14.71;82.75
13604;BME280;24578;48.264;11.436;2022-07-19T02:13:23;96684.41;;;14.68;83.06
13604;BME280;24578;48.264;11.436;2022-07-19T02:16:23;96678.72;;;14.62;83.57
13604;BME280;24578;48.264;11.436;2022-07-19T02:19:24;96680.50;;;14.62;83.97
13604;BME280;24578;48.264;11.436;2022-07-19T02:22:25;96675.78;;;14.56;84.32
13604;BME280;24578;48.264;11.436;2022-07-19T02:25:25;96679.72;;;14.50;84.42
13604;BME280;24578;48.264;11.436;2022-07-19T02:28:26;96673.22;;;14.44;84.86
13604;BME280;24578;48.264;11.436;2022-07-19T02:31:26;96677.84;;;14.41;84.89
13604;BME280;24578;48.264;11.436;2022-07-19T02:34:27;96674.66;;;14.37;84.97
13604;BME280;24578;48.264;11.436;2022-07-19T02:37:27;96671.63;;;14.32;85.51
13604;BME280;24578;48.264;11.436;2022-07-19T02:40:28;96665.00;;;14.28;85.91
13604;BME280;24578;48.264;11.436;2022-07-19T02:43:28;96667.13;;;14.23;86.66
13604;BME280;24578;48.264;11.436;2022-07-19T02:46:37;96667.38;;;14.20;87.10
13604;BME280;24578;48.264;11.436;2022-07-19T02:49:38;96665.84;;;14.17;87.51
13604;BME280;24578;48.264;11.436;2022-07-19T02:52:38;96655.94;;;14.11;88.13
13604;BME280;24578;48.264;11.436;2022-07-19T02:55:39;96656.06;;;14.09;88.41
13604;BME280;24578;48.264;11.436;2022-07-19T02:58:40;96659.75;;;14.07;88.51
13604;BME280;24578;48.264;11.436;2022-07-19T03:01:40;96659.28;;;14.01;88.99
13604;BME280;24578;48.264;11.436;2022-07-19T03:04:41;96662.81;;;14.00;88.85
13604;BME280;24578;48.264;11.436;2022-07-19T03:07:41;96661.41;;;13.96;89.21
13604;BME280;24578;48.264;11.436;2022-07-19T03:10:42;96662.63;;;13.92;89.25
13604;BME280;24578;48.264;11.436;2022-07-19T03:13:43;96666.41;;;13.88;89.31
13604;BME280;24578;48.264;11.436;2022-07-19T03:16:44;96663.31;;;13.83;89.69
13604;BME280;24578;48.264;11.436;2022-07-19T03:19:44;96655.75;;;13.80;89.59
13604;BME280;24578;48.264;11.436;2022-07-19T03:22:46;96663.56;;;13.80;89.63
13604;BME280;24578;48.264;11.436;2022-07-19T03:25:46;96655.88;;;13.78;89.45
13604;BME280;24578;48.264;11.436;2022-07-19T03:28:47;96665.59;;;13.76;89.75
13604;BME280;24578;48.264;11.436;2022-07-19T03:31:47;96656.03;;;13.77;89.65
13604;BME280;24578;48.264;11.436;2022-07-19T03:34:48;96668.75;;;13.80;90.15
13604;BME280;24578;48.264;11.436;2022-07-19T03:37:48;96670.19;;;13.84;90.35
13604;BME280;24578;48.264;11.436;2022-07-19T03:40:49;96667.47;;;13.85;90.25
13604;BME280;24578;48.264;11.436;2022-07-19T03:43:50;96669.94;;;13.87;90.30
13604;BME280;24578;48.264;11.436;2022-07-19T03:46:50;96665.31;;;13.91;90.33
13604;BME280;24578;48.264;11.436;2022-07-19T03:49:51;96656.19;;;13.96;89.92
13604;BME280;24578;48.264;11.436;2022-07-19T03:52:51;96655.97;;;13.99;89.89
13604;BME280;24578;48.264;11.436;2022-07-19T03:55:52;96663.53;;;14.03;89.77
13604;BME280;24578;48.264;11.436;2022-07-19T03:58:52;96662.44;;;14.05;89.69
13604;BME280;24578;48.264;11.436;2022-07-19T04:01:53;96658.81;;;14.08;89.77
13604;BME280;24578;48.264;11.436;2022-07-19T04:04:53;96661.59;;;14.16;89.76
13604;BME280;24578;48.264;11.436;2022-07-19T04:07:54;96670.22;;;14.28;89.27
13604;BME280;24578;48.264;11.436;2022-07-19T04:10:56;96672.59;;;14.52;88.82
13604;BME280;24578;48.264;11.436;2022-07-19T04:13:57;96676.03;;;14.85;87.97
13604;BME280;24578;48.264;11.436;2022-07-19T04:16:57;96672.13;;;15.22;86.54
13604;BME280;24578;48.264;11.436;2022-07-19T04:19:58;96669.84;;;15.60;84.85
13604;BME280;24578;48.264;11.436;2022-07-19T04:22:58;96655.25;;;15.98;83.54
13604;BME280;24578;48.264;11.436;2022-07-19T04:25:59;96661.50;;;16.36;81.87
13604;BME280;24578;48.264;11.436;2022-07-19T04:29:00;96658.75;;;16.67;79.83
13604;BME280;24578;48.264;11.436;2022-07-19T04:32:00;96657.63;;;16.99;77.87
13604;BME280;24578;48.264;11.436;2022-07-19T04:35:02;96653.56;;;17.34;75.91
13604;BME280;24578;48.264;11.436;2022-07-19T04:38:02;96655.91;;;17.65;73.51
13604;BME280;24578;48.264;11.436;2022-07-19T04:41:03;96650.66;;;17.93;71.02
13604;BME280;24578;48.264;11.436;2022-07-19T04:44:04;96654.84;;;18.32;69.82
13604;BME280;24578;48.264;11.436;2022-07-19T04:47:04;96658.94;;;18.71;67.78
13604;BME280;24578;48.264;11.436;2022-07-19T04:50:05;96655.16;;;19.10;66.25
13604;BME280;24578;48.264;11.436;2022-07-19T04:53:07;96654.56;;;19.59;64.52
13604;BME280;24578;48.264;11.436;2022-07-19T04:56:08;96659.69;;;20.03;62.62
13604;BME280;24578;48.264;11.436;2022-07-19T04:59:09;96651.72;;;20.38;60.30
13604;BME280;24578;48.264;11.436;2022-07-19T05:02:09;96655.34;;;20.70;59.96
13604;BME280;24578;48.264;11.436;2022-07-19T05:05:11;96647.13;;;21.14;57.57
13604;BME280;24578;48.264;11.436;2022-07-19T05:08:11;96650.84;;;21.37;56.31
13604;BME280;24578;48.264;11.436;2022-07-19T05:11:12;96661.31;;;21.70;55.27
13604;BME280;24578;48.264;11.436;2022-07-19T05:14:12;96649.75;;;22.11;54.23
13604;BME280;24578;48.264;11.436;2022-07-19T05:17:14;96644.94;;;22.38;52.84
13604;BME280;24578;48.264;11.436;2022-07-19T05:20:15;96648.75;;;22.81;51.48
13604;BME280;24578;48.264;11.436;2022-07-19T05:23:16;96654.13;;;23.26;49.95
13604;BME280;24578;48.264;11.436;2022-07-19T05:26:17;96651.94;;;23.60;48.81
13604;BME280;24578;48.264;11.436;2022-07-19T05:29:17;96642.72;;;23.86;46.97
13604;BME280;24578;48.264;11.436;2022-07-19T05:32:18;96649.75;;;24.30;46.49
13604;BME280;24578;48.264;11.436;2022-07-19T05:35:18;96644.78;;;24.86;44.74
13604;BME280;24578;48.264;11.436;2022-07-19T05:38:19;96640.13;;;25.51;43.28
13604;BME280;24578;48.264;11.436;2022-07-19T05:41:19;96633.56;;;25.96;42.05
13604;BME280;24578;48.264;11.436;2022-07-19T05:44:22;96629.66;;;26.60;40.86
13604;BME280;24578;48.264;11.436;2022-07-19T05:47:23;96624.16;;;26.89;39.71
13604;BME280;24578;48.264;11.436;2022-07-19T05:50:23;96624.28;;;27.34;39.00
13604;BME280;24578;48.264;11.436;2022-07-19T05:53:25;96632.75;;;27.90;37.86
13604;BME280;24578;48.264;11.436;2022-07-19T05:56:25;96628.78;;;28.00;37.09
13604;BME280;24578;48.264;11.436;2022-07-19T05:59:26;96623.91;;;27.96;36.91
13604;BME280;24578;48.264;11.436;2022-07-19T06:02:27;96624.63;;;28.17;37.07
13604;BME280;24578;48.264;11.436;2022-07-19T06:05:27;96619.25;;;28.56;35.84
13604;BME280;24578;48.264;11.436;2022-07-19T06:08:28;96617.44;;;29.07;35.14
13604;BME280;24578;48.264;11.436;2022-07-19T06:11:28;96621.88;;;29.13;34.25
13604;BME280;24578;48.264;11.436;2022-07-19T06:14:29;96618.28;;;29.26;34.45
13604;BME280;24578;48.264;11.436;2022-07-19T06:17:30;96620.25;;;29.56;33.34
13604;BME280;24578;48.264;11.436;2022-07-19T06:20:30;96617.50;;;29.93;33.46
13604;BME280;24578;48.264;11.436;2022-07-19T06:23:31;96624.50;;;30.25;32.72
13604;BME280;24578;48.264;11.436;2022-07-19T06:26:31;96621.66;;;30.08;32.98
13604;BME280;24578;48.264;11.436;2022-07-19T06:29:32;96617.31;;;30.26;33.13
13604;BME280;24578;48.264;11.436;2022-07-19T06:32:33;96615.22;;;30.58;31.88
13604;BME280;24578;48.264;11.436;2022-07-19T06:35:33;96614.31;;;30.76;31.49
13604;BME280;24578;48.264;11.436;2022-07-19T06:38:34;96612.31;;;31.43;30.34
13604;BME280;24578;48.264;11.436;2022-07-19T06:41:34;96618.00;;;31.70;29.58
13604;BME280;24578;48.264;11.436;2022-07-19T06:44:35;96614.09;;;31.25;30.24
13604;BME280;24578;48.264;11.436;2022-07-19T06:47:35;96614.28;;;31.71;29.35
13604;BME280;24578;48.264;11.436;2022-07-19T06:50:37;96616.69;;;31.73;29.40
13604;BME280;24578;48.264;11.436;2022-07-19T06:53:37;96606.66;;;31.92;28.93
13604;BME280;24578;48.264;11.436;2022-07-19T06:56:38;96600.50;;;32.72;28.74
13604;BME280;24578;48.264;11.436;2022-07-19T06:59:38;96607.97;;;33.21;27.48
13604;BME280;24578;48.264;11.436;2022-07-19T07:02:40;96610.66;;;33.21;26.61
13604;BME280;24578;48.264;11.436;2022-07-19T07:05:41;96603.53;;;33.49;26.39
13604;BME280;24578;48.264;11.436;2022-07-19T07:08:41;96608.75;;;33.21;26.10
13604;BME280;24578;48.264;11.436;2022-07-19T07:11:42;96609.09;;;34.14;25.77
13604;BME280;24578;48.264;11.436;2022-07-19T07:14:42;96606.09;;;33.61;25.53
13604;BME280;24578;48.264;11.436;2022-07-19T07:17:43;96618.25;;;34.18;25.60
13604;BME280;24578;48.264;11.436;2022-07-19T07:20:44;96611.63;;;33.98;25.13
13604;BME280;24578;48.264;11.436;2022-07-19T07:23:44;96607.31;;;33.14;26.24
13604;BME280;24578;48.264;11.436;2022-07-19T07:26:45;96600.78;;;34.43;25.35
13604;BME280;24578;48.264;11.436;2022-07-19T07:29:45;96602.78;;;35.33;23.85
13604;BME280;24578;48.264;11.436;2022-07-19T07:32:46;96596.66;;;35.48;23.88
13604;BME280;24578;48.264;11.436;2022-07-19T07:35:47;96602.59;;;36.45;22.73
13604;BME280;24578;48.264;11.436;2022-07-19T07:38:47;96593.41;;;36.93;22.40
13604;BME280;24578;48.264;11.436;2022-07-19T07:41:48;96579.59;;;37.15;21.63
13604;BME280;24578;48.264;11.436;2022-07-19T07:44:49;96583.06;;;37.41;20.84
13604;BME280;24578;48.264;11.436;2022-07-19T07:47:49;96584.22;;;37.85;21.20
13604;BME280;24578;48.264;11.436;2022-07-19T07:50:50;96588.28;;;37.83;20.52
13604;BME280;24578;48.264;11.436;2022-07-19T07:53:51;96592.34;;;36.42;22.14
13604;BME280;24578;48.264;11.436;2022-07-19T07:56:52;96582.94;;;36.65;22.57
13604;BME280;24578;48.264;11.436;2022-07-19T07:59:52;96580.91;;;37.33;21.25
13604;BME280;24578;48.264;11.436;2022-07-19T08:02:53;96585.16;;;37.60;21.25
13604;BME280;24578;48.264;11.436;2022-07-19T08:05:53;96578.66;;;38.11;20.29
13604;BME280;24578;48.264;11.436;2022-07-19T08:08:54;96569.88;;;38.64;20.16
13604;BME280;24578;48.264;11.436;2022-07-19T08:11:54;96578.25;;;38.68;20.00
13604;BME280;24578;48.264;11.436;2022-07-19T08:14:55;96571.94;;;38.48;19.85
13604;BME280;24578;48.264;11.436;2022-07-19T08:17:56;96568.59;;;38.57;19.66
13604;BME280;24578;48.264;11.436;2022-07-19T08:20:56;96573.66;;;37.94;19.12
13604;BME280;24578;48.264;11.436;2022-07-19T08:23:57;96576.81;;;38.06;19.37
13604;BME280;24578;48.264;11.436;2022-07-19T08:26:57;96571.72;;;38.00;20.11
13604;BME280;24578;48.264;11.436;2022-07-19T08:29:58;96571.50;;;37.96;19.71
13604;BME280;24578;48.264;11.436;2022-07-19T08:32:58;96562.94;;;38.88;18.71
13604;BME280;24578;48.264;11.436;2022-07-19T08:36:01;96565.00;;;38.37;18.99
13604;BME280;24578;48.264;11.436;2022-07-19T08:39:01;96557.13;;;38.70;19.11
13604;BME280;24578;48.264;11.436;2022-07-19T08:42:02;96560.06;;;39.27;18.76
13604;BME280;24578;48.264;11.436;2022-07-19T08:45:08;96561.16;;;39.02;18.00
13604;BME280;24578;48.264;11.436;2022-07-19T08:48:09;96561.53;;;38.61;18.67
13604;BME280;24578;48.264;11.436;2022-07-19T08:51:12;96575.31;;;38.24;18.96
13604;BME280;24578;48.264;11.436;2022-07-19T08:54:12;96564.66;;;38.73;19.17
13604;BME280;24578;48.264;11.436;2022-07-19T08:57:13;96568.91;;;38.55;18.56
13604;BME280;24578;48.264;11.436;2022-07-19T09:00:34;96551.63;;;38.80;19.32
13604;BME280;24578;48.264;11.436;2022-07-19T09:03:35;96546.78;;;38.82;18.70
13604;BME280;24578;48.264;11.436;2022-07-19T09:06:58;96546.41;;;39.62;17.81
13604;BME280;24578;48.264;11.436;2022-07-19T09:10:20;96542.09;;;39.99;18.03
13604;BME280;24578;48.264;11.436;2022-07-19T09:13:21;96543.94;;;39.85;18.23
13604;BME280;24578;48.264;11.436;2022-07-19T09:16:21;96552.09;;;40.18;17.67
13604;BME280;24578;48.264;11.436;2022-07-19T09:19:23;96546.41;;;40.19;16.86
13604;BME280;24578;48.264;11.436;2022-07-19T09:22:25;96550.91;;;39.91;16.94
13604;BME280;24578;48.264;11.436;2022-07-19T09:28:45;96544.53;;;39.38;18.00
13604;BME280;24578;48.264;11.436;2022-07-19T09:32:06;96542.63;;;39.82;17.79
13604;BME280;24578;48.264;11.436;2022-07-19T09:35:07;96538.91;;;39.73;18.19
13604;BME280;24578;48.264;11.436;2022-07-19T09:38:20;96531.34;;;39.94;18.00
13604;BME280;24578;48.264;11.436;2022-07-19T09:41:21;96547.16;;;39.87;18.08
13604;BME280;24578;48.264;11.436;2022-07-19T09:44:21;96533.44;;;40.16;17.63
13604;BME280;24578;48.264;11.436;2022-07-19T09:47:34;96531.88;;;40.29;17.91
13604;BME280;24578;48.264;11.436;2022-07-19T09:50:36;96524.06;;;40.28;16.93
13604;BME280;24578;48.264;11.436;2022-07-19T09:53:37;96524.19;;;40.84;16.05
13604;BME280;24578;48.264;11.436;2022-07-19T09:56:40;96520.72;;;40.50;15.86
13604;BME280;24578;48.264;11.436;2022-07-19T09:59:50;96518.66;;;40.75;14.84
13604;BME280;24578;48.264;11.436;2022-07-19T10:02:54;96522.78;;;39.87;15.57
13604;BME280;24578;48.264;11.436;2022-07-19T10:05:55;96519.75;;;38.13;16.98
13604;BME280;24578;48.264;11.436;2022-07-19T10:08:56;96510.19;;;38.61;17.10
13604;BME280;24578;48.264;11.436;2022-07-19T10:11:59;96509.72;;;39.51;17.49
13604;BME280;24578;48.264;11.436;2022-07-19T10:15:00;96506.09;;;40.13;16.43
13604;BME280;24578;48.264;11.436;2022-07-19T10:18:14;96510.47;;;40.61;17.02
13604;BME280;24578;48.264;11.436;2022-07-19T10:21:17;96506.84;;;40.18;17.20
13604;BME280;24578;48.264;11.436;2022-07-19T10:27:53;96510.63;;;39.84;16.94
13604;BME280;24578;48.264;11.436;2022-07-19T10:30:56;96503.00;;;39.67;17.24
13604;BME280;24578;48.264;11.436;2022-07-19T10:34:05;96507.00;;;40.08;17.45
13604;BME280;24578;48.264;11.436;2022-07-19T10:37:07;96491.53;;;40.28;16.93
13604;BME280;24578;48.264;11.436;2022-07-19T10:40:08;96494.63;;;40.21;17.00
13604;BME280;24578;48.264;11.436;2022-07-19T10:43:18;96497.63;;;40.19;17.42
13604;BME280;24578;48.264;11.436;2022-07-19T10:46:30;96495.75;;;39.43;17.46
13604;BME280;24578;48.264;11.436;2022-07-19T10:49:46;96487.03;;;39.03;17.95
13604;BME280;24578;48.264;11.436;2022-07-19T10:52:48;96486.50;;;39.01;17.95
13604;BME280;24578;48.264;11.436;2022-07-19T10:56:17;96480.16;;;39.35;17.70
13604;BME280;24578;48.264;11.436;2022-07-19T10:59:42;96485.34;;;39.07;17.63
13604;BME280;24578;48.264;11.436;2022-07-19T11:02:43;96483.81;;;38.47;17.96
13604;BME280;24578;48.264;11.436;2022-07-19T11:06:01;96488.25;;;38.33;19.06
13604;BME280;24578;48.264;11.436;2022-07-19T11:09:02;96480.06;;;38.43;18.32
13604;BME280;24578;48.264;11.436;2022-07-19T11:12:28;96483.16;;;38.61;18.26
13604;BME280;24578;48.264;11.436;2022-07-19T11:15:29;96471.38;;;38.51;17.23
13604;BME280;24578;48.264;11.436;2022-07-19T11:18:31;96471.09;;;38.18;16.99
13604;BME280;24578;48.264;11.436;2022-07-19T11:21:34;96464.56;;;37.90;17.41
13604;BME280;24578;48.264;11.436;2022-07-19T11:24:38;96463.97;;;38.28;17.45
13604;BME280;24578;48.264;11.436;2022-07-19T11:27:43;96454.22;;;38.32;17.94
13604;BME280;24578;48.264;11.436;2022-07-19T11:30:44;96448.34;;;38.24;17.71
13604;BME280;24578;48.264;11.436;2022-07-19T11:33:47;96447.69;;;38.08;17.69
13604;BME280;24578;48.264;11.436;2022-07-19T11:36:58;96452.47;;;37.77;18.28
13604;BME280;24578;48.264;11.436;2022-07-19T11:39:58;96436.84;;;38.43;18.25
13604;BME280;24578;48.264;11.436;2022-07-19T11:42:59;96445.69;;;38.19;17.94
13604;BME280;24578;48.264;11.436;2022-07-19T11:46:04;96439.25;;;38.15;17.87
13604;BME280;24578;48.264;11.436;2022-07-19T11:49:07;96425.97;;;37.89;17.87
13604;BME280;24578;48.264;11.436;2022-07-19T11:52:08;96436.47;;;37.51;17.91
13604;BME280;24578;48.264;11.436;2022-07-19T11:55:09;96432.56;;;37.73;17.94
13604;BME280;24578;48.264;11.436;2022-07-19T11:58:10;96421.19;;;37.76;17.44
13604;BME280;24578;48.264;11.436;2022-07-19T12:01:11;96423.75;;;37.97;17.88
13604;BME280;24578;48.264;11.436;2022-07-19T12:04:12;96422.09;;;38.01;17.71
13604;BME280;24578;48.264;11.436;2022-07-19T12:07:16;96426.81;;;37.40;18.17
13604;BME280;24578;48.264;11.436;2022-07-19T12:10:40;96417.56;;;37.56;17.64
13604;BME280;24578;48.264;11.436;2022-07-19T12:13:41;96409.94;;;37.63;17.26
13604;BME280;24578;48.264;11.436;2022-07-19T12:16:41;96419.63;;;37.70;17.52
13604;BME280;24578;48.264;11.436;2022-07-19T12:19:48;96418.47;;;37.36;16.94
13604;BME280;24578;48.264;11.436;2022-07-19T12:22:48;96414.69;;;37.37;17.26
13604;BME280;24578;48.264;11.436;2022-07-19T12:25:51;96412.75;;;37.48;17.24
13604;BME280;24578;48.264;11.436;2022-07-19T12:28:52;96410.31;;;37.91;17.08
13604;BME280;24578;48.264;11.436;2022-07-19T12:31:59;96401.47;;;37.36;17.39
13604;BME280;24578;48.264;11.436;2022-07-19T12:35:20;96398.25;;;37.33;17.14
13604;BME280;24578;48.264;11.436;2022-07-19T12:38:31;96393.44;;;37.25;17.20
13604;BME280;24578;48.264;11.436;2022-07-19T12:41:32;96393.94;;;37.32;17.01
13604;BME280;24578;48.264;11.436;2022-07-19T12:44:34;96395.75;;;36.92;16.70
13604;BME280;24578;48.264;11.436;2022-07-19T12:47:35;96386.41;;;36.69;17.96
13604;BME280;24578;48.264;11.436;2022-07-19T12:50:41;96397.94;;;36.95;17.77
13604;BME280;24578;48.264;11.436;2022-07-19T12:53:42;96395.47;;;37.04;17.39
13604;BME280;24578;48.264;11.436;2022-07-19T12:56:42;96382.78;;;36.99;17.28
13604;BME280;24578;48.264;11.436;2022-07-19T12:59:43;96392.28;;;36.86;17.60
13604;BME280;24578;48.264;11.436;2022-07-19T13:02:45;96380.22;;;36.68;18.23
13604;BME280;24578;48.264;11.436;2022-07-19T13:05:46;96373.91;;;36.99;17.93
13604;BME280;24578;48.264;11.436;2022-07-19T13:08:47;96381.22;;;36.88;17.47
13604;BME280;24578;48.264;11.436;2022-07-19T13:11:47;96377.97;;;36.96;17.54
13604;BME280;24578;48.264;11.436;2022-07-19T13:14:48;96369.94;;;36.81;18.06
13604;BME280;24578;48.264;11.436;2022-07-19T13:17:48;96371.50;;;36.97;17.80
13604;BME280;24578;48.264;11.436;2022-07-19T13:20:49;96374.44;;;36.91;18.19
13604;BME280;24578;48.264;11.436;2022-07-19T13:23:49;96369.94;;;37.31;18.63
13604;BME280;24578;48.264;11.436;2022-07-19T13:26:50;96362.50;;;37.57;17.36
13604;BME280;24578;48.264;11.436;2022-07-19T13:29:51;96360.53;;;37.28;17.33
13604;BME280;24578;48.264;11.436;2022-07-19T13:32:52;96362.56;;;37.47;17.38
13604;BME280;24578;48.264;11.436;2022-07-19T13:35:52;96370.03;;;37.60;17.20
13604;BME280;24578;48.264;11.436;2022-07-19T13:38:53;96361.31;;;37.69;17.31
13604;BME280;24578;48.264;11.436;2022-07-19T13:41:53;96365.50;;;37.85;17.80
13604;BME280;24578;48.264;11.436;2022-07-19T13:44:54;96367.44;;;37.80;17.18
13604;BME280;24578;48.264;11.436;2022-07-19T13:47:54;96354.13;;;37.54;17.48
13604;BME280;24578;48.264;11.436;2022-07-19T13:50:55;96351.13;;;37.60;18.17
13604;BME280;24578;48.264;11.436;2022-07-19T13:53:56;96341.97;;;37.91;17.91
13604;BME280;24578;48.264;11.436;2022-07-19T13:56:56;96344.38;;;37.92;17.40
13604;BME280;24578;48.264;11.436;2022-07-19T13:59:57;96350.22;;;37.70;17.42
13604;BME280;24578;48.264;11.436;2022-07-19T14:02:58;96336.47;;;37.32;17.57
13604;BME280;24578;48.264;11.436;2022-07-19T14:05:58;96344.88;;;36.75;18.38
13604;BME280;24578;48.264;11.436;2022-07-19T14:08:59;96325.31;;;36.43;18.06
13604;BME280;24578;48.264;11.436;2022-07-19T14:12:00;96325.84;;;36.40;18.28
13604;BME280;24578;48.264;11.436;2022-07-19T14:15:00;96320.28;;;36.21;17.71
13604;BME280;24578;48.264;11.436;2022-07-19T14:18:01;96324.78;;;36.47;17.87
13604;BME280;24578;48.264;11.436;2022-07-19T14:21:03;96322.81;;;36.68;17.57
13604;BME280;24578;48.264;11.436;2022-07-19T14:24:03;96319.19;;;36.93;17.21
13604;BME280;24578;48.264;11.436;2022-07-19T14:27:04;96327.69;;;36.61;17.10
13604;BME280;24578;48.264;11.436;2022-07-19T14:30:05;96324.81;;;36.31;17.56
13604;BME280;24578;48.264;11.436;2022-07-19T14:33:06;96333.47;;;35.14;17.83
13604;BME280;24578;48.264;11.436;2022-07-19T14:36:06;96325.88;;;34.27;18.82
13604;BME280;24578;48.264;11.436;2022-07-19T14:39:07;96333.13;;;33.78;18.49
13604;BME280;24578;48.264;11.436;2022-07-19T14:42:09;96316.81;;;33.52;19.95
13604;BME280;24578;48.264;11.436;2022-07-19T14:45:10;96322.50;;;33.34;19.88
13604;BME280;24578;48.264;11.436;2022-07-19T14:48:10;96317.91;;;33.24;20.07
13604;BME280;24578;48.264;11.436;2022-07-19T14:51:12;96329.72;;;33.28;20.42
13604;BME280;24578;48.264;11.436;2022-07-19T14:54:13;96313.84;;;33.21;20.23
13604;BME280;24578;48.264;11.436;2022-07-19T14:57:14;96326.88;;;33.13;20.57
13604;BME280;24578;48.264;11.436;2022-07-19T15:00:14;96318.41;;;32.93;20.49
13604;BME280;24578;48.264;11.436;2022-07-19T15:03:16;96316.53;;;32.72;21.13
13604;BME280;24578;48.264;11.436;2022-07-19T15:06:16;96313.31;;;32.70;20.76
13604;BME280;24578;48.264;11.436;2022-07-19T15:09:17;96317.28;;;32.67;20.91
13604;BME280;24578;48.264;11.436;2022-07-19T15:12:18;96313.44;;;32.58;20.87
13604;BME280;24578;48.264;11.436;2022-07-19T15:15:19;96314.38;;;32.46;21.10
13604;BME280;24578;48.264;11.436;2022-07-19T15:18:20;96315.63;;;32.39;21.09
13604;BME280;24578;48.264;11.436;2022-07-19T15:21:20;96312.63;;;32.35;21.21
13604;BME280;24578;48.264;11.436;2022-07-19T15:24:21;96307.03;;;32.19;20.16
13604;BME280;24578;48.264;11.436;2022-07-19T15:27:22;96307.16;;;32.08;21.23
13604;BME280;24578;48.264;11.436;2022-07-19T15:30:23;96295.03;;;32.00;21.89
13604;BME280;24578;48.264;11.436;2022-07-19T15:33:24;96299.41;;;31.89;21.96
13604;BME280;24578;48.264;11.436;2022-07-19T15:36:24;96293.66;;;31.80;22.51
13604;BME280;24578;48.264;11.436;2022-07-19T15:39:25;96297.63;;;31.78;22.53
13604;BME280;24578;48.264;11.436;2022-07-19T15:42:25;96304.44;;;31.85;23.17
13604;BME280;24578;48.264;11.436;2022-07-19T15:45:26;96297.22;;;31.86;22.87
13604;BME280;24578;48.264;11.436;2022-07-19T15:48:27;96291.13;;;31.91;23.35
13604;BME280;24578;48.264;11.436;2022-07-19T15:51:28;96289.94;;;31.81;22.42
13604;BME280;24578;48.264;11.436;2022-07-19T15:54:30;96291.53;;;31.65;22.97
13604;BME280;24578;48.264;11.436;2022-07-19T15:57:31;96287.41;;;31.57;23.10